createdAt,value
2019-03-04T00:00:36.405Z,24.17
2019-03-04T00:02:13.139Z,21.70
2019-03-04T00:03:49.364Z,23.57
2019-03-04T00:05:25.577Z,23.87
2019-03-04T00:07:01.761Z,23.53
2019-03-04T00:08:37.872Z,24.90
2019-03-04T00:10:14.280Z,23.27
2019-03-04T00:11:50.582Z,26.50
2019-03-04T00:13:26.989Z,25.37
2019-03-04T00:15:03.101Z,26.67
2019-03-04T00:16:39.391Z,24.97
2019-03-04T00:18:21.541Z,23.17
2019-03-04T00:19:54.085Z,25.63
2019-03-04T00:21:30.406Z,31.57
2019-03-04T00:23:07.435Z,27.93
2019-03-04T00:24:43.762Z,28.83
2019-03-04T00:26:20.036Z,23.67
2019-03-04T00:27:56.363Z,23.93
2019-03-04T00:29:32.527Z,26.93
2019-03-04T00:31:08.846Z,30.20
2019-03-04T00:32:45.223Z,26.50
2019-03-04T00:34:21.671Z,24.27
2019-03-04T00:35:57.740Z,26.70
2019-03-04T00:37:35.916Z,31.47
2019-03-04T00:39:12.662Z,33.60
2019-03-04T00:40:48.893Z,30.23
2019-03-04T00:42:25.124Z,27.70
2019-03-04T00:44:01.113Z,32.50
2019-03-04T00:45:37.207Z,32.10
2019-03-04T00:47:13.080Z,31.80
2019-03-04T00:48:49.133Z,31.60
2019-03-04T00:50:25.230Z,27.27
2019-03-04T00:52:01.395Z,30.73
2019-03-04T00:53:37.367Z,33.80
2019-03-04T00:55:13.752Z,34.13
2019-03-04T00:56:49.815Z,31.77
2019-03-04T00:58:25.994Z,35.07
2019-03-04T01:00:02.068Z,35.90
2019-03-04T01:01:38.164Z,35.03
2019-03-04T01:03:14.375Z,30.23
2019-03-04T01:04:50.251Z,31.10
2019-03-04T01:06:26.799Z,35.33
2019-03-04T01:08:02.851Z,30.97
2019-03-04T01:09:38.878Z,39.00
2019-03-04T01:11:15.134Z,36.63
2019-03-04T01:12:51.261Z,37.57
2019-03-04T01:14:27.435Z,38.20
2019-03-04T01:16:03.562Z,35.10
2019-03-04T01:17:39.798Z,38.97
2019-03-04T01:19:15.925Z,38.27
2019-03-04T01:20:51.954Z,33.77
2019-03-04T01:22:28.079Z,38.40
2019-03-04T01:24:04.221Z,35.80
2019-03-04T01:25:40.420Z,32.23
2019-03-04T01:27:16.394Z,29.30
2019-03-04T01:28:52.185Z,33.43
2019-03-04T01:30:28.658Z,30.77
2019-03-04T01:32:04.798Z,33.83
2019-03-04T01:33:40.931Z,34.87
2019-03-04T01:35:17.140Z,34.83
2019-03-04T01:36:53.211Z,35.47
2019-03-04T01:38:29.348Z,33.90
2019-03-04T01:40:16.584Z,32.10
2019-03-04T01:41:52.481Z,33.03
2019-03-04T01:43:28.507Z,32.03
2019-03-04T01:45:06.620Z,31.00
2019-03-04T01:46:42.745Z,32.37
2019-03-04T01:48:19.178Z,33.50
2019-03-04T01:49:55.166Z,32.27
2019-03-04T01:51:31.234Z,34.80
2019-03-04T01:53:07.198Z,30.90
2019-03-04T01:54:43.191Z,36.37
2019-03-04T01:56:19.330Z,36.13
2019-03-04T01:58:14.754Z,28.60
2019-03-04T01:59:50.752Z,30.27
2019-03-04T02:01:26.796Z,31.63
2019-03-04T02:03:03.079Z,28.33
2019-03-04T02:04:39.276Z,27.30
2019-03-04T02:06:15.234Z,31.87
2019-03-04T02:07:51.131Z,31.03
2019-03-04T02:09:27.260Z,33.50
2019-03-04T02:11:03.457Z,31.60
2019-03-04T02:12:39.585Z,31.47
2019-03-04T02:14:15.558Z,30.63
2019-03-04T02:15:51.757Z,31.07
2019-03-04T02:17:27.969Z,28.73
2019-03-04T02:19:04.063Z,31.67
2019-03-04T02:20:40.140Z,31.67
2019-03-04T02:22:16.168Z,27.33
2019-03-04T02:23:52.389Z,29.40
2019-03-04T02:25:47.855Z,31.83
2019-03-04T02:27:23.979Z,29.10
2019-03-04T02:29:00.125Z,29.70
2019-03-04T02:30:36.322Z,29.23
2019-03-04T02:32:12.518Z,31.37
2019-03-04T02:33:48.591Z,30.13
2019-03-04T02:35:25.002Z,23.90
2019-03-04T02:37:01.124Z,27.17
2019-03-04T02:38:37.085Z,30.03
2019-03-04T02:40:13.180Z,27.17
2019-03-04T02:41:49.169Z,28.37
2019-03-04T02:43:25.275Z,26.87
2019-03-04T02:45:01.330Z,30.77
2019-03-04T02:46:37.598Z,28.80
2019-03-04T02:48:13.686Z,24.00
2019-03-04T02:49:49.671Z,28.80
2019-03-04T02:51:25.813Z,24.80
2019-03-04T02:53:01.878Z,29.73
2019-03-04T02:54:38.034Z,27.30
2019-03-04T02:56:14.730Z,29.77
2019-03-04T02:57:50.691Z,24.67
2019-03-04T02:59:28.051Z,29.00
2019-03-04T03:01:04.678Z,27.77
2019-03-04T03:02:40.879Z,24.50
2019-03-04T03:04:17.039Z,30.87
2019-03-04T03:05:53.171Z,29.50
2019-03-04T03:07:29.479Z,29.93
2019-03-04T03:09:08.047Z,29.83
2019-03-04T03:10:44.170Z,25.97
2019-03-04T03:12:21.471Z,24.00
2019-03-04T03:13:57.268Z,26.97
2019-03-04T03:15:33.330Z,23.17
2019-03-04T03:17:09.192Z,23.63
2019-03-04T03:18:45.359Z,23.70
2019-03-04T03:20:21.569Z,23.30
2019-03-04T03:21:57.642Z,23.30
2019-03-04T03:23:33.700Z,27.77
2019-03-04T03:25:12.113Z,28.50
2019-03-04T03:26:48.242Z,25.77
2019-03-04T03:28:24.247Z,26.73
2019-03-04T03:30:00.499Z,23.97
2019-03-04T03:31:36.721Z,26.77
2019-03-04T03:33:12.757Z,25.63
2019-03-04T03:34:48.646Z,23.60
2019-03-04T03:36:24.775Z,22.53
2019-03-04T03:38:00.928Z,21.57
2019-03-04T03:39:36.877Z,20.83
2019-03-04T03:41:13.007Z,23.60
2019-03-04T03:42:49.212Z,21.33
2019-03-04T03:44:25.419Z,23.10
2019-03-04T03:46:01.560Z,25.83
2019-03-04T03:47:37.717Z,19.03
2019-03-04T03:49:13.822Z,21.07
2019-03-04T03:50:49.835Z,26.50
2019-03-04T03:52:25.964Z,25.47
2019-03-04T03:54:02.176Z,22.20
2019-03-04T03:55:38.300Z,21.00
2019-03-04T03:57:14.493Z,19.97
2019-03-04T03:58:50.373Z,21.53
2019-03-04T04:00:27.482Z,24.70
2019-03-04T04:02:03.501Z,25.23
2019-03-04T04:03:39.695Z,27.17
2019-03-04T04:05:15.847Z,26.67
2019-03-04T04:06:51.880Z,26.57
2019-03-04T04:08:27.864Z,23.67
2019-03-04T04:10:05.664Z,23.97
2019-03-04T04:11:41.795Z,26.17
2019-03-04T04:13:17.905Z,22.63
2019-03-04T04:14:54.040Z,28.53
2019-03-04T04:16:29.995Z,20.37
2019-03-04T04:18:06.297Z,20.97
2019-03-04T04:19:42.428Z,24.03
2019-03-04T04:21:18.626Z,27.70
2019-03-04T04:22:54.622Z,23.97
2019-03-04T04:24:30.608Z,25.77
2019-03-04T04:26:08.216Z,26.10
2019-03-04T04:27:44.321Z,22.40
2019-03-04T04:29:20.514Z,23.07
2019-03-04T04:30:56.661Z,29.70
2019-03-04T04:32:32.778Z,24.47
2019-03-04T04:34:08.921Z,20.30
2019-03-04T04:35:45.142Z,23.00
2019-03-04T04:37:21.410Z,19.03
2019-03-04T04:38:57.410Z,18.97
2019-03-04T04:40:33.362Z,19.83
2019-03-04T04:42:09.464Z,21.27
2019-03-04T04:43:45.527Z,21.43
2019-03-04T04:45:21.566Z,24.33
2019-03-04T04:46:57.717Z,20.10
2019-03-04T04:48:33.668Z,25.67
2019-03-04T04:50:22.782Z,22.10
2019-03-04T04:51:58.806Z,19.63
2019-03-04T04:53:34.976Z,20.63
2019-03-04T04:55:11.168Z,25.23
2019-03-04T04:56:47.154Z,20.60
2019-03-04T04:58:23.183Z,19.27
2019-03-04T04:59:59.197Z,26.23
2019-03-04T05:01:36.614Z,21.70
2019-03-04T05:03:12.747Z,32.17
2019-03-04T05:04:48.608Z,47.13
2019-03-04T05:06:24.694Z,39.80
2019-03-04T05:08:00.688Z,35.63
2019-03-04T05:09:36.749Z,30.73
2019-03-04T05:11:12.735Z,28.77
2019-03-04T05:12:48.846Z,26.20
2019-03-04T05:14:24.966Z,26.73
2019-03-04T05:16:01.031Z,33.30
2019-03-04T05:17:37.159Z,28.40
2019-03-04T05:19:13.365Z,26.90
2019-03-04T05:20:49.389Z,23.13
2019-03-04T05:22:25.555Z,27.90
2019-03-04T05:24:01.556Z,30.27
2019-03-04T05:25:37.667Z,24.53
2019-03-04T05:27:13.839Z,29.30
2019-03-04T05:28:49.871Z,33.40
2019-03-04T05:30:26.307Z,27.60
2019-03-04T05:32:02.811Z,30.47
2019-03-04T05:33:40.216Z,29.60
2019-03-04T05:35:16.449Z,33.37
2019-03-04T05:36:52.435Z,37.60
2019-03-04T05:38:28.468Z,36.20
2019-03-04T05:40:10.310Z,48.37
2019-03-04T05:41:46.365Z,56.37
2019-03-04T05:43:22.433Z,44.60
2019-03-04T05:44:58.562Z,51.67
2019-03-04T05:46:34.626Z,44.57
2019-03-04T05:48:10.690Z,40.23
2019-03-04T05:49:46.886Z,36.53
2019-03-04T05:51:23.014Z,31.17
2019-03-04T05:53:00.517Z,41.17
2019-03-04T05:54:36.661Z,42.37
2019-03-04T05:56:12.696Z,35.77
2019-03-04T05:57:48.927Z,39.93
2019-03-04T05:59:25.165Z,39.43
2019-03-04T06:01:26.299Z,49.13
2019-03-04T06:03:10.001Z,48.20
2019-03-04T06:04:46.287Z,55.07
2019-03-04T06:06:40.177Z,57.10
2019-03-04T06:08:17.162Z,57.53
2019-03-04T06:09:53.051Z,46.83
2019-03-04T06:11:29.152Z,41.37
2019-03-04T06:13:05.378Z,36.73
2019-03-04T06:14:53.503Z,42.13
2019-03-04T06:16:29.485Z,35.77
2019-03-04T06:18:05.719Z,35.80
2019-03-04T06:19:43.949Z,30.27
2019-03-04T06:21:19.561Z,37.00
2019-03-04T06:22:55.686Z,35.43
2019-03-04T06:24:31.754Z,37.53
2019-03-04T06:26:07.958Z,35.47
2019-03-04T06:27:44.023Z,31.93
2019-03-04T06:29:20.002Z,25.87
2019-03-04T06:30:55.991Z,35.97
2019-03-04T06:32:32.053Z,35.47
2019-03-04T06:34:08.184Z,39.67
2019-03-04T06:35:44.246Z,42.73
2019-03-04T06:37:20.384Z,34.20
2019-03-04T06:38:56.506Z,38.33
2019-03-04T06:40:32.637Z,29.97
2019-03-04T06:42:08.704Z,30.47
2019-03-04T06:43:44.703Z,26.50
2019-03-04T06:45:21.905Z,25.63
2019-03-04T06:46:58.614Z,27.40
2019-03-04T06:48:34.695Z,28.87
2019-03-04T06:50:47.264Z,32.13
2019-03-04T06:52:23.699Z,27.23
2019-03-04T06:54:19.573Z,30.10
2019-03-04T06:56:11.813Z,25.73
2019-03-04T06:57:48.057Z,25.53
2019-03-04T07:00:15.863Z,26.07
2019-03-04T07:02:14.547Z,33.07
2019-03-04T07:03:54.191Z,75.00
2019-03-04T07:05:45.957Z,92.70
2019-03-04T07:07:23.362Z,175.83
2019-03-04T07:09:05.556Z,227.67
2019-03-04T07:10:41.545Z,148.73
2019-03-04T07:12:17.701Z,177.03
2019-03-04T07:13:53.770Z,250.03
2019-03-04T07:15:29.769Z,181.77
2019-03-04T07:17:05.976Z,176.80
2019-03-04T07:18:42.175Z,140.60
2019-03-04T07:20:23.483Z,66.00
2019-03-04T07:21:59.591Z,41.40
2019-03-04T07:23:37.270Z,29.40
2019-03-04T07:25:16.615Z,25.97
2019-03-04T07:26:54.029Z,33.03
2019-03-04T07:28:30.135Z,30.43
2019-03-04T07:30:19.176Z,33.87
2019-03-04T07:31:55.478Z,32.90
2019-03-04T07:33:31.549Z,28.90
2019-03-04T07:35:09.855Z,31.83
2019-03-04T07:36:45.947Z,32.27
2019-03-04T07:38:27.743Z,38.03
2019-03-04T07:40:06.786Z,43.20
2019-03-04T07:41:42.935Z,51.07
2019-03-04T07:43:19.134Z,47.83
2019-03-04T07:44:55.282Z,39.37
2019-03-04T07:46:31.319Z,51.50
2019-03-04T07:48:07.467Z,52.07
2019-03-04T07:49:48.050Z,48.47
2019-03-04T07:51:24.158Z,52.83
2019-03-04T07:53:00.029Z,36.90
2019-03-04T07:54:35.934Z,50.27
2019-03-04T07:56:12.018Z,27.70
2019-03-04T07:57:48.159Z,26.37
2019-03-04T07:59:24.476Z,36.07
2019-03-04T08:01:01.938Z,37.20
2019-03-04T08:02:38.049Z,37.67
2019-03-04T08:04:14.266Z,32.20
2019-03-04T08:05:50.707Z,27.00
2019-03-04T08:07:52.325Z,26.57
2019-03-04T08:10:07.273Z,26.70
2019-03-04T08:12:31.874Z,22.97
2019-03-04T08:14:13.947Z,21.47
2019-03-04T08:15:50.060Z,19.43
2019-03-04T08:17:26.112Z,20.47
2019-03-04T08:19:02.600Z,16.73
2019-03-04T08:20:38.636Z,20.53
2019-03-04T08:22:14.772Z,23.60
2019-03-04T08:23:50.911Z,21.73
2019-03-04T08:25:27.126Z,17.83
2019-03-04T08:27:03.235Z,21.47
2019-03-04T08:28:39.336Z,28.80
2019-03-04T08:30:18.620Z,17.67
2019-03-04T08:31:54.828Z,14.47
2019-03-04T08:33:30.866Z,13.73
2019-03-04T08:35:07.372Z,27.87
2019-03-04T08:36:46.900Z,15.47
2019-03-04T08:38:23.118Z,19.17
2019-03-04T08:39:59.255Z,16.93
2019-03-04T08:41:35.413Z,13.50
2019-03-04T08:43:11.481Z,13.37
2019-03-04T08:44:47.447Z,16.73
2019-03-04T08:46:24.881Z,12.43
2019-03-04T08:48:00.983Z,11.60
2019-03-04T08:49:37.060Z,13.47
2019-03-04T08:51:13.181Z,13.87
2019-03-04T08:52:49.552Z,15.63
2019-03-04T08:54:25.712Z,11.77
2019-03-04T08:56:01.775Z,15.73
2019-03-04T08:57:37.810Z,13.13
2019-03-04T08:59:14.688Z,16.23
2019-03-04T09:00:51.246Z,15.07
2019-03-04T09:02:27.430Z,13.53
2019-03-04T09:04:03.565Z,13.13
2019-03-04T09:05:39.775Z,18.20
2019-03-04T09:07:17.292Z,17.20
2019-03-04T09:08:53.426Z,12.40
2019-03-04T09:10:37.774Z,12.00
2019-03-04T09:12:13.812Z,13.90
2019-03-04T09:13:49.893Z,12.00
2019-03-04T09:15:26.304Z,13.40
2019-03-04T09:17:02.604Z,11.93
2019-03-04T09:18:38.616Z,11.27
2019-03-04T09:20:17.396Z,11.37
2019-03-04T09:21:53.522Z,14.40
2019-03-04T09:23:29.900Z,15.77
2019-03-04T09:25:19.638Z,13.00
2019-03-04T09:26:55.551Z,12.20
2019-03-04T09:28:31.600Z,11.93
2019-03-04T09:30:14.358Z,13.17
2019-03-04T09:31:51.798Z,16.23
2019-03-04T09:33:27.934Z,14.00
2019-03-04T09:35:05.012Z,14.17
2019-03-04T09:36:42.647Z,10.53
2019-03-04T09:38:18.897Z,10.93
2019-03-04T09:39:57.823Z,13.10
2019-03-04T09:41:34.092Z,13.33
2019-03-04T09:43:15.205Z,14.20
2019-03-04T09:44:51.340Z,15.87
2019-03-04T09:46:27.682Z,16.77
2019-03-04T09:48:03.883Z,30.70
2019-03-04T09:49:40.429Z,15.37
2019-03-04T09:51:24.043Z,13.37
2019-03-04T09:52:54.485Z,15.03
2019-03-04T09:54:30.645Z,17.33
2019-03-04T09:56:06.863Z,13.67
2019-03-04T09:57:43.063Z,15.73
2019-03-04T09:59:19.104Z,19.03
2019-03-04T10:01:11.390Z,18.20
2019-03-04T10:02:47.489Z,18.97
2019-03-04T10:04:48.496Z,12.17
2019-03-04T10:06:49.786Z,18.20
2019-03-04T10:08:33.031Z,19.63
2019-03-04T10:10:32.343Z,14.30
2019-03-04T10:12:24.871Z,19.83
2019-03-04T10:14:13.797Z,17.87
2019-03-04T10:16:03.809Z,18.40
2019-03-04T10:18:09.518Z,20.00
2019-03-04T10:20:14.211Z,17.50
2019-03-04T10:22:23.341Z,19.40
2019-03-04T10:24:30.807Z,24.20
2019-03-04T10:26:22.253Z,27.43
2019-03-04T10:28:17.217Z,19.63
2019-03-04T10:30:06.464Z,15.23
2019-03-04T10:31:52.887Z,21.87
2019-03-04T10:34:00.565Z,13.20
2019-03-04T10:35:43.720Z,15.97
2019-03-04T10:37:50.682Z,14.27
2019-03-04T10:39:33.804Z,21.43
2019-03-04T10:41:23.215Z,18.43
2019-03-04T10:43:31.095Z,16.40
2019-03-04T10:45:32.935Z,22.20
2019-03-04T10:47:09.074Z,26.03
2019-03-04T10:48:45.201Z,15.57
2019-03-04T10:50:21.493Z,23.10
2019-03-04T10:51:57.622Z,14.93
2019-03-04T10:53:33.779Z,23.47
2019-03-04T10:55:13.360Z,19.97
2019-03-04T10:56:49.572Z,25.27
2019-03-04T10:58:25.925Z,27.00
2019-03-04T11:00:01.902Z,20.13
2019-03-04T11:01:38.058Z,24.87
2019-03-04T11:03:14.028Z,28.63
2019-03-04T11:04:49.834Z,32.23
2019-03-04T11:06:27.515Z,22.90
2019-03-04T11:08:03.649Z,15.23
2019-03-04T11:09:39.655Z,19.17
2019-03-04T11:11:15.757Z,14.27
2019-03-04T11:12:52.027Z,17.60
2019-03-04T11:14:28.094Z,35.40
2019-03-04T11:16:04.201Z,21.10
2019-03-04T11:17:40.403Z,23.13
2019-03-04T11:19:16.479Z,26.00
2019-03-04T11:20:53.465Z,18.83
2019-03-04T11:22:29.749Z,28.33
2019-03-04T11:24:08.517Z,28.67
2019-03-04T11:25:44.648Z,26.70
2019-03-04T11:27:20.922Z,23.07
2019-03-04T11:28:57.170Z,21.43
2019-03-04T11:30:33.643Z,14.00
2019-03-04T11:32:09.853Z,32.43
2019-03-04T11:33:46.054Z,25.77
2019-03-04T11:35:22.094Z,26.90
2019-03-04T11:36:58.167Z,23.43
2019-03-04T11:38:43.302Z,35.20
2019-03-04T11:40:39.037Z,44.57
2019-03-04T11:42:15.152Z,22.03
2019-03-04T11:43:51.908Z,30.20
2019-03-04T11:45:28.179Z,22.37
2019-03-04T11:47:04.316Z,13.60
2019-03-04T11:48:40.532Z,14.30
2019-03-04T11:50:17.766Z,11.90
2019-03-04T11:51:53.921Z,34.47
2019-03-04T11:53:30.157Z,33.27
2019-03-04T11:55:16.597Z,28.37
2019-03-04T11:56:52.580Z,26.90
2019-03-04T11:58:28.802Z,28.93
2019-03-04T12:00:37.289Z,20.40
2019-03-04T12:02:15.090Z,20.63
2019-03-04T12:03:51.232Z,20.23
2019-03-04T12:05:27.351Z,15.63
2019-03-04T12:07:04.737Z,19.90
2019-03-04T12:08:40.862Z,25.80
2019-03-04T12:10:18.221Z,18.40
2019-03-04T12:11:54.368Z,10.63
2019-03-04T12:13:30.438Z,22.30
2019-03-04T12:15:13.709Z,22.73
2019-03-04T12:16:49.914Z,19.03
2019-03-04T12:18:26.133Z,23.00
2019-03-04T12:20:02.346Z,24.03
2019-03-04T12:21:38.485Z,22.57
2019-03-04T12:23:14.674Z,19.60
2019-03-04T12:24:50.764Z,21.60
2019-03-04T12:26:26.979Z,12.20
2019-03-04T12:28:03.215Z,13.40
2019-03-04T12:29:39.399Z,13.00
2019-03-04T12:31:15.539Z,13.53
2019-03-04T12:32:53.446Z,13.43
2019-03-04T12:34:29.604Z,10.27
2019-03-04T12:36:06.011Z,11.97
2019-03-04T12:37:42.197Z,20.37
2019-03-04T12:39:18.182Z,20.80
2019-03-04T12:40:54.143Z,26.43
2019-03-04T12:42:30.132Z,19.70
2019-03-04T12:44:06.071Z,10.07
2019-03-04T12:45:42.281Z,12.57
2019-03-04T12:47:19.705Z,18.23
2019-03-04T12:48:55.615Z,13.87
2019-03-04T12:50:36.407Z,31.50
2019-03-04T12:52:12.446Z,12.43
2019-03-04T12:53:48.456Z,12.53
2019-03-04T12:55:24.477Z,13.13
2019-03-04T12:57:00.596Z,20.57
2019-03-04T12:58:36.646Z,11.73
2019-03-04T13:00:19.899Z,12.83
2019-03-04T13:01:56.028Z,9.27
2019-03-04T13:03:32.325Z,11.87
2019-03-04T13:05:12.220Z,13.00
2019-03-04T13:06:48.260Z,14.70
2019-03-04T13:08:24.476Z,10.50
2019-03-04T13:10:00.531Z,10.90
2019-03-04T13:11:36.659Z,12.27
2019-03-04T13:13:12.882Z,11.27
2019-03-04T13:14:48.937Z,14.00
2019-03-04T13:16:25.147Z,10.33
2019-03-04T13:18:01.374Z,12.53
2019-03-04T13:19:37.540Z,11.87
2019-03-04T13:21:13.747Z,11.70
2019-03-04T13:22:50.055Z,15.07
2019-03-04T13:24:26.124Z,16.27
2019-03-04T13:26:02.315Z,12.13
2019-03-04T13:27:38.620Z,11.10
2019-03-04T13:29:14.931Z,23.53
2019-03-04T13:30:51.080Z,14.67
2019-03-04T13:32:27.131Z,13.97
2019-03-04T13:34:03.969Z,10.40
2019-03-04T13:35:44.856Z,12.57
2019-03-04T13:37:21.093Z,9.80
2019-03-04T13:38:57.243Z,13.63
2019-03-04T13:40:33.912Z,13.13
2019-03-04T13:42:11.503Z,17.00
2019-03-04T13:43:47.612Z,13.40
2019-03-04T13:45:24.409Z,11.97
2019-03-04T13:47:00.551Z,13.73
2019-03-04T13:48:36.607Z,15.50
2019-03-04T13:50:22.715Z,15.43
2019-03-04T13:51:58.855Z,10.57
2019-03-04T13:53:35.003Z,13.03
2019-03-04T13:55:11.604Z,14.33
2019-03-04T13:56:47.750Z,16.73
2019-03-04T13:58:23.859Z,15.07
2019-03-04T13:59:59.961Z,12.77
2019-03-04T14:01:36.093Z,12.13
2019-03-04T14:03:14.909Z,14.60
2019-03-04T14:04:50.883Z,13.23
2019-03-04T14:06:27.020Z,13.53
2019-03-04T14:08:03.262Z,17.53
2019-03-04T14:09:39.237Z,18.50
2019-03-04T14:11:17.117Z,15.17
2019-03-04T14:12:53.223Z,16.67
2019-03-04T14:14:29.380Z,17.83
2019-03-04T14:16:06.810Z,19.37
2019-03-04T14:17:43.024Z,13.73
2019-03-04T14:19:19.171Z,21.87
2019-03-04T14:20:55.296Z,17.40
2019-03-04T14:22:40.122Z,25.80
2019-03-04T14:24:09.155Z,22.50
2019-03-04T14:25:45.348Z,27.07
2019-03-04T14:27:21.482Z,18.00
2019-03-04T14:28:57.550Z,19.20
2019-03-04T14:30:33.850Z,23.37
2019-03-04T14:32:10.071Z,21.73
2019-03-04T14:33:46.140Z,23.03
2019-03-04T14:35:22.266Z,12.50
2019-03-04T14:36:58.486Z,15.73
2019-03-04T14:38:34.622Z,17.17
2019-03-04T14:40:19.466Z,18.33
2019-03-04T14:41:55.611Z,26.57
2019-03-04T14:43:31.744Z,22.03
2019-03-04T14:45:20.758Z,24.17
2019-03-04T14:46:56.819Z,22.97
2019-03-04T14:48:33.030Z,32.10
2019-03-04T14:50:18.253Z,23.77
2019-03-04T14:51:54.418Z,29.03
2019-03-04T14:53:30.543Z,28.53
2019-03-04T14:55:11.246Z,24.70
2019-03-04T14:56:47.530Z,26.63
2019-03-04T14:58:23.831Z,21.77
2019-03-04T14:59:59.900Z,21.70
2019-03-04T15:01:39.154Z,24.47
2019-03-04T15:03:20.964Z,28.17
2019-03-04T15:04:52.960Z,33.47
2019-03-04T15:06:29.103Z,21.60
2019-03-04T15:08:07.991Z,24.93
2019-03-04T15:09:49.241Z,31.97
2019-03-04T15:11:21.993Z,29.50
2019-03-04T15:12:58.243Z,26.47
2019-03-04T15:14:34.304Z,22.80
2019-03-04T15:16:10.509Z,21.37
2019-03-04T15:17:46.850Z,27.93
2019-03-04T15:19:22.813Z,27.97
2019-03-04T15:20:59.059Z,36.90
2019-03-04T15:22:35.483Z,111.43
2019-03-04T15:24:11.856Z,56.80
2019-03-04T15:25:48.063Z,58.43
2019-03-04T15:27:24.472Z,77.43
2019-03-04T15:29:00.625Z,58.37
2019-03-04T15:30:37.042Z,41.23
2019-03-04T15:32:13.266Z,22.67
2019-03-04T15:33:50.765Z,36.43
2019-03-04T15:35:26.838Z,34.90
2019-03-04T15:37:03.057Z,25.17
2019-03-04T15:38:39.131Z,31.20
2019-03-04T15:40:16.176Z,32.40
2019-03-04T15:41:52.401Z,28.07
2019-03-04T15:43:28.569Z,29.37
2019-03-04T15:45:05.339Z,34.13
2019-03-04T15:46:41.555Z,44.93
2019-03-04T15:48:19.459Z,36.47
2019-03-04T15:49:55.431Z,24.97
2019-03-04T15:51:31.573Z,20.63
2019-03-04T15:53:07.775Z,31.47
2019-03-04T15:54:43.951Z,21.70
2019-03-04T15:56:20.454Z,16.87
2019-03-04T15:57:56.447Z,16.87
2019-03-04T15:59:32.489Z,19.77
2019-03-04T16:01:11.656Z,20.37
2019-03-04T16:02:48.905Z,21.93
2019-03-04T16:04:24.979Z,21.97
2019-03-04T16:06:01.198Z,22.83
2019-03-04T16:07:37.413Z,21.50
2019-03-04T16:09:17.539Z,19.30
2019-03-04T16:10:53.646Z,24.20
2019-03-04T16:12:30.047Z,16.10
2019-03-04T16:14:06.248Z,18.93
2019-03-04T16:15:47.576Z,22.13
2019-03-04T16:17:23.819Z,18.10
2019-03-04T16:19:00.041Z,22.93
2019-03-04T16:20:36.294Z,20.67
2019-03-04T16:22:12.505Z,17.60
2019-03-04T16:23:50.089Z,24.33
2019-03-04T16:25:26.727Z,17.87
2019-03-04T16:27:09.492Z,20.40
2019-03-04T16:28:45.721Z,16.90
2019-03-04T16:30:25.753Z,18.63
2019-03-04T16:32:01.976Z,19.00
2019-03-04T16:33:39.540Z,23.17
2019-03-04T16:35:15.980Z,33.50
2019-03-04T16:36:52.119Z,29.80
2019-03-04T16:38:28.273Z,32.07
2019-03-04T16:40:06.827Z,29.43
2019-03-04T16:41:43.989Z,27.33
2019-03-04T16:43:20.151Z,22.33
2019-03-04T16:44:56.325Z,24.07
2019-03-04T16:46:32.355Z,26.00
2019-03-04T16:48:08.565Z,20.67
2019-03-04T16:49:45.649Z,19.77
2019-03-04T16:51:21.943Z,26.23
2019-03-04T16:53:10.656Z,35.23
2019-03-04T16:54:46.630Z,34.27
2019-03-04T16:56:22.840Z,63.97
2019-03-04T16:57:59.061Z,129.23
2019-03-04T16:59:35.236Z,121.27
2019-03-04T17:01:11.279Z,115.80
2019-03-04T17:02:47.413Z,59.40
2019-03-04T17:04:24.545Z,59.70
2019-03-04T17:06:00.783Z,70.50
2019-03-04T17:07:36.901Z,75.53
2019-03-04T17:09:18.652Z,72.07
2019-03-04T17:10:56.086Z,70.33
2019-03-04T17:12:32.257Z,45.93
2019-03-04T17:14:08.287Z,45.50
2019-03-04T17:15:44.442Z,35.87
2019-03-04T17:17:20.559Z,59.23
2019-03-04T17:18:56.723Z,62.10
2019-03-04T17:20:32.827Z,56.70
2019-03-04T17:22:08.968Z,54.30
2019-03-04T17:23:45.177Z,87.23
2019-03-04T17:25:24.456Z,50.97
2019-03-04T17:27:00.598Z,54.63
2019-03-04T17:28:36.637Z,55.60
2019-03-04T17:30:21.605Z,50.07
2019-03-04T17:31:57.652Z,46.13
2019-03-04T17:33:33.861Z,72.23
2019-03-04T17:35:13.405Z,178.00
2019-03-04T17:36:49.452Z,118.03
2019-03-04T17:38:25.432Z,69.87
2019-03-04T17:40:01.500Z,33.67
2019-03-04T17:41:37.724Z,54.47
2019-03-04T17:43:13.987Z,51.40
2019-03-04T17:44:50.142Z,49.93
2019-03-04T17:46:26.262Z,59.73
2019-03-04T17:48:03.962Z,78.83
2019-03-04T17:49:39.994Z,78.70
2019-03-04T17:51:16.168Z,93.10
2019-03-04T17:52:51.965Z,89.27
2019-03-04T17:54:28.008Z,89.77
2019-03-04T17:56:04.239Z,96.90
2019-03-04T17:57:40.778Z,89.77
2019-03-04T17:59:16.652Z,68.73
2019-03-04T18:00:55.463Z,47.67
2019-03-04T18:02:31.509Z,56.83
2019-03-04T18:04:07.704Z,43.50
2019-03-04T18:05:43.909Z,56.13
2019-03-04T18:07:20.168Z,54.90
2019-03-04T18:08:56.317Z,43.73
2019-03-04T18:10:32.569Z,51.27
2019-03-04T18:12:08.778Z,72.03
2019-03-04T18:13:44.840Z,78.43
2019-03-04T18:15:35.983Z,67.17
2019-03-04T18:17:12.130Z,90.27
2019-03-04T18:18:48.372Z,65.87
2019-03-04T18:20:34.126Z,48.27
2019-03-04T18:22:02.501Z,54.93
2019-03-04T18:23:41.376Z,47.57
2019-03-04T18:25:49.242Z,52.00
2019-03-04T18:27:25.455Z,53.27
2019-03-04T18:29:11.970Z,44.00
2019-03-04T18:31:04.585Z,33.17
2019-03-04T18:32:48.219Z,33.30
2019-03-04T18:34:43.618Z,44.87
2019-03-04T18:36:48.363Z,34.40
2019-03-04T18:38:48.406Z,35.97
2019-03-04T18:40:45.339Z,38.03
2019-03-04T18:42:40.576Z,42.57
2019-03-04T18:44:57.587Z,33.50
2019-03-04T18:46:52.719Z,36.13
2019-03-04T18:48:56.868Z,44.87
2019-03-04T18:50:32.911Z,39.23
2019-03-04T18:52:09.055Z,32.03
2019-03-04T18:53:45.166Z,30.43
2019-03-04T18:55:21.375Z,38.90
2019-03-04T18:56:57.586Z,34.73
2019-03-04T18:58:33.589Z,24.50
2019-03-04T19:00:25.933Z,31.23
2019-03-04T19:02:02.126Z,25.17
2019-03-04T19:03:38.333Z,24.10
2019-03-04T19:05:14.375Z,23.10
2019-03-04T19:06:50.695Z,22.33
2019-03-04T19:08:26.746Z,21.30
2019-03-04T19:10:02.798Z,30.97
2019-03-04T19:11:39.197Z,25.63
2019-03-04T19:13:15.810Z,27.33
2019-03-04T19:14:51.851Z,19.23
2019-03-04T19:16:27.891Z,24.63
2019-03-04T19:18:03.868Z,25.60
2019-03-04T19:19:39.951Z,19.10
2019-03-04T19:21:16.023Z,28.27
2019-03-04T19:22:52.063Z,29.13
2019-03-04T19:24:28.132Z,21.40
2019-03-04T19:26:04.370Z,22.60
2019-03-04T19:27:40.543Z,22.30
2019-03-04T19:29:16.550Z,24.40
2019-03-04T19:30:52.817Z,20.43
2019-03-04T19:32:28.857Z,18.40
2019-03-04T19:34:05.061Z,16.33
2019-03-04T19:35:41.213Z,18.97
2019-03-04T19:37:17.371Z,23.90
2019-03-04T19:38:53.505Z,22.17
2019-03-04T19:40:29.718Z,26.10
2019-03-04T19:42:05.916Z,12.80
2019-03-04T19:43:42.079Z,16.83
2019-03-04T19:45:22.568Z,16.93
2019-03-04T19:46:58.504Z,11.67
2019-03-04T19:48:35.094Z,16.70
2019-03-04T19:50:12.772Z,13.90
2019-03-04T19:51:48.887Z,11.43
2019-03-04T19:53:24.832Z,13.20
2019-03-04T19:55:01.041Z,10.53
2019-03-04T19:56:37.143Z,9.83
2019-03-04T19:58:13.366Z,16.13
2019-03-04T19:59:49.568Z,9.13
2019-03-04T20:01:25.807Z,13.37
2019-03-04T20:03:02.022Z,12.10
2019-03-04T20:04:38.240Z,15.83
2019-03-04T20:06:14.471Z,11.03
2019-03-04T20:07:50.411Z,10.80
2019-03-04T20:09:26.749Z,18.47
2019-03-04T20:11:02.949Z,14.80
2019-03-04T20:12:39.166Z,11.97
2019-03-04T20:14:15.338Z,8.97
2019-03-04T20:15:52.923Z,11.93
2019-03-04T20:17:29.324Z,11.07
2019-03-04T20:19:05.626Z,8.17
2019-03-04T20:20:42.935Z,8.80
2019-03-04T20:22:19.115Z,12.97
2019-03-04T20:23:55.338Z,9.57
2019-03-04T20:25:31.744Z,12.33
2019-03-04T20:27:07.845Z,13.00
2019-03-04T20:28:44.083Z,13.43
2019-03-04T20:30:22.178Z,10.57
2019-03-04T20:31:59.838Z,11.63
2019-03-04T20:33:37.367Z,9.87
2019-03-04T20:35:17.610Z,10.47
2019-03-04T20:36:53.628Z,9.20
2019-03-04T20:38:40.518Z,12.20
2019-03-04T20:40:16.844Z,11.90
2019-03-04T20:41:52.983Z,12.40
2019-03-04T20:43:29.180Z,8.13
2019-03-04T20:45:08.787Z,8.80
2019-03-04T20:46:44.808Z,7.40
2019-03-04T20:48:21.119Z,9.03
2019-03-04T20:49:57.169Z,10.47
2019-03-04T20:51:33.317Z,11.10
2019-03-04T20:53:09.587Z,13.27
2019-03-04T20:54:45.586Z,13.17
2019-03-04T20:56:21.720Z,15.70
2019-03-04T20:57:57.942Z,14.90
2019-03-04T20:59:34.053Z,14.90
2019-03-04T21:01:10.440Z,19.13
2019-03-04T21:02:47.168Z,16.80
2019-03-04T21:04:23.274Z,12.60